Time;durP1;ratioP1;P1;durP2;ratioP2;P2;SDS_P1;SDS_P2;PMS_P1;PMS_P2;Temp;Humidity;BMP_temperature;BMP_pressure;BME280_temperature;BME280_humidity;BME280_pressure;Samples;Min_cycle;Max_cycle;Signal;HPM_P1;HPM_P2
2022/07/14 00:02:18;;;;;;;2.25;1.35;;;24.80;92.10;;;;;;7389868;19;20254;-78
2022/07/14 00:04:44;;;;;;;2.08;1.13;;;24.60;92.20;;;;;;7388915;19;20135;-77
2022/07/14 00:07:10;;;;;;;1.60;1.20;;;24.40;92.70;;;;;;7390664;19;20249;-79
2022/07/14 00:09:37;;;;;;;2.70;1.25;;;24.40;92.60;;;;;;7391665;19;20143;-78
2022/07/14 00:12:03;;;;;;;2.33;1.40;;;24.40;92.40;;;;;;7389909;19;20139;-78
2022/07/14 00:14:31;;;;;;;2.97;1.60;;;24.50;92.40;;;;;;7387188;19;20159;-78
2022/07/14 00:16:57;;;;;;;2.03;1.17;;;24.50;92.40;;;;;;7389922;19;20502;-78
2022/07/14 00:19:23;;;;;;;1.45;1.27;;;24.40;92.50;;;;;;7389056;19;20182;-77
2022/07/14 00:21:49;;;;;;;2.25;1.30;;;24.10;92.30;;;;;;7391562;19;20158;-79
2022/07/14 00:24:15;;;;;;;1.90;1.13;;;24.00;92.80;;;;;;7389717;19;20569;-79
2022/07/14 00:26:40;;;;;;;2.33;1.45;;;24.10;92.80;;;;;;7387508;19;20195;-78
2022/07/14 00:29:07;;;;;;;2.88;1.50;;;24.30;93.00;;;;;;7390204;19;20161;-77
2022/07/14 00:31:33;;;;;;;3.60;1.17;;;24.30;93.10;;;;;;7392081;19;20150;-78
2022/07/14 00:34:00;;;;;;;1.95;1.30;;;24.20;93.00;;;;;;7392320;19;20139;-78
2022/07/14 00:36:30;;;;;;;3.35;1.80;;;24.10;93.00;;;;;;7390358;19;20168;-79
2022/07/14 00:38:56;;;;;;;2.67;1.67;;;24.30;93.40;;;;;;7390582;19;20143;-78
2022/07/14 00:41:23;;;;;;;3.72;1.67;;;24.30;93.60;;;;;;7388963;19;20159;-77
2022/07/14 00:43:49;;;;;;;3.22;1.70;;;24.20;93.80;;;;;;7389668;19;20123;-77
2022/07/14 00:46:14;;;;;;;2.88;1.30;;;24.10;94.00;;;;;;7390242;19;20163;-78
2022/07/14 00:48:40;;;;;;;1.55;1.25;;;24.00;94.20;;;;;;7390185;19;20469;-78
2022/07/14 00:51:06;;;;;;;3.40;1.50;;;23.90;94.40;;;;;;7389940;19;20149;-78
2022/07/14 00:53:32;;;;;;;5.15;1.48;;;23.80;94.60;;;;;;7391883;19;20142;-77
2022/07/14 00:55:58;;;;;;;2.88;1.10;;;23.70;94.90;;;;;;7387623;19;20231;-78
2022/07/14 00:58:24;;;;;;;2.05;1.42;;;23.70;95.30;;;;;;7388734;19;20488;-77
2022/07/14 01:00:50;;;;;;;2.13;1.38;;;23.60;95.50;;;;;;7386382;19;20149;-81
2022/07/14 01:03:17;;;;;;;1.98;1.08;;;23.60;95.50;;;;;;7387742;19;20146;-80
2022/07/14 01:05:43;;;;;;;3.72;1.35;;;23.60;95.80;;;;;;7389321;19;20135;-81
2022/07/14 01:08:09;;;;;;;4.60;1.25;;;23.60;95.90;;;;;;7388420;19;20171;-80
2022/07/14 01:10:35;;;;;;;3.28;1.40;;;23.60;96.10;;;;;;7388158;19;20150;-81
2022/07/14 01:13:03;;;;;;;2.10;1.20;;;23.50;96.30;;;;;;7387654;19;20639;-80
2022/07/14 01:15:30;;;;;;;1.48;1.17;;;23.50;96.60;;;;;;7389589;19;20146;-80
2022/07/14 01:17:56;;;;;;;2.83;1.30;;;23.30;97.00;;;;;;7385602;19;20838;-80
2022/07/14 01:20:23;;;;;;;2.10;1.20;;;23.40;97.00;;;;;;7387061;19;20173;-80
2022/07/14 01:22:49;;;;;;;3.80;1.00;;;23.20;97.50;;;;;;7391276;19;20175;-79
2022/07/14 01:25:20;;;;;;;1.98;1.27;;;23.30;97.60;;;;;;7388167;19;20146;-80
2022/07/14 01:27:46;;;;;;;2.13;1.40;;;22.90;98.20;;;;;;7387966;19;20177;-80
2022/07/14 01:30:12;;;;;;;1.83;1.40;;;22.70;98.50;;;;;;7389443;19;20150;-80
2022/07/14 01:32:38;;;;;;;1.10;0.90;;;22.70;98.90;;;;;;7385813;19;20138;-80
2022/07/14 01:35:05;;;;;;;1.30;1.00;;;22.60;99.10;;;;;;7389011;19;20154;-80
2022/07/14 01:37:31;;;;;;;2.13;1.30;;;22.40;99.80;;;;;;7386720;19;20145;-80
2022/07/14 01:39:57;;;;;;;1.75;1.30;;;22.30;99.90;;;;;;7385951;19;20225;-80
2022/07/14 01:42:22;;;;;;;1.88;1.38;;;22.10;99.90;;;;;;7395080;19;20154;-80
2022/07/14 01:44:48;;;;;;;2.30;1.55;;;22.10;99.90;;;;;;7392608;19;20160;-80
2022/07/14 01:47:14;;;;;;;4.10;1.23;;;22.10;99.90;;;;;;7393861;19;20130;-79
2022/07/14 01:49:40;;;;;;;2.38;1.20;;;22.00;99.90;;;;;;7395046;19;20673;-79
2022/07/14 01:52:06;;;;;;;1.38;1.13;;;22.10;99.90;;;;;;7395738;19;20143;-80
2022/07/14 01:54:32;;;;;;;1.13;1.02;;;22.10;99.90;;;;;;7396305;19;20157;-79
2022/07/14 01:56:57;;;;;;;3.20;1.20;;;22.20;99.90;;;;;;7397717;19;20601;-80
2022/07/14 01:59:23;;;;;;;1.77;1.30;;;22.10;99.90;;;;;;7393915;19;20489;-79
2022/07/14 02:01:49;;;;;;;4.38;1.17;;;22.10;99.90;;;;;;7395579;19;20138;-79
2022/07/14 02:04:19;;;;;;;1.42;1.02;;;21.90;99.90;;;;;;7394467;19;20608;-80
2022/07/14 02:06:48;;;;;;;3.17;1.67;;;21.70;99.90;;;;;;7397472;19;20138;-80
2022/07/14 02:09:14;;;;;;;4.22;1.35;;;21.40;99.90;;;;;;7394701;19;20151;-79
2022/07/14 02:14:25;;;;;;;2.03;1.30;;;21.70;99.90;;;;;;7394732;19;20138;-80
2022/07/14 02:16:51;;;;;;;3.55;1.90;;;22.10;99.90;;;;;;7394451;19;20134;-78
2022/07/14 02:19:17;;;;;;;4.07;1.50;;;21.90;99.90;;;;;;7390461;19;20603;-80
2022/07/14 02:21:43;;;;;;;3.33;1.45;;;21.90;99.90;;;;;;7392952;19;20503;-78
2022/07/14 02:24:09;;;;;;;3.28;1.25;;;22.20;99.90;;;;;;7396385;19;20157;-79
2022/07/14 02:26:37;;;;;;;3.08;1.48;;;22.30;99.90;;;;;;7391995;19;20150;-79
2022/07/14 02:29:06;;;;;;;3.20;1.40;;;22.20;99.90;;;;;;7392683;19;20155;-80
2022/07/14 02:31:32;;;;;;;2.83;1.42;;;22.10;99.90;;;;;;7393784;19;20182;-79
2022/07/14 02:33:58;;;;;;;1.75;1.20;;;22.00;99.90;;;;;;7395148;19;20178;-79
2022/07/14 02:36:24;;;;;;;2.10;1.30;;;21.90;99.90;;;;;;7393496;19;20134;-79
2022/07/14 02:38:50;;;;;;;4.28;1.77;;;21.90;99.90;;;;;;7394091;19;23357;-78
2022/07/14 02:41:16;;;;;;;3.13;1.85;;;21.80;99.90;;;;;;7396250;19;20138;-79
2022/07/14 02:43:42;;;;;;;3.40;1.58;;;22.10;99.90;;;;;;7390859;19;20449;-79
2022/07/14 02:46:09;;;;;;;1.92;1.33;;;22.10;99.90;;;;;;7396526;19;20666;-79
2022/07/14 02:48:35;;;;;;;2.55;1.45;;;21.70;99.90;;;;;;7391611;19;20138;-78
2022/07/14 02:51:06;;;;;;;2.65;1.60;;;21.50;99.90;;;;;;7391031;19;20174;-78
2022/07/14 02:53:34;;;;;;;3.00;1.50;;;21.40;99.90;;;;;;7397372;19;20548;-79
2022/07/14 02:56:04;;;;;;;1.73;1.20;;;21.50;99.90;;;;;;7393099;19;20134;-77
2022/07/14 02:58:30;;;;;;;2.15;1.27;;;21.70;99.90;;;;;;7396973;19;20202;-77
2022/07/14 03:00:56;;;;;;;1.80;1.23;;;21.70;99.90;;;;;;7389851;19;20143;-78
2022/07/14 03:03:22;;;;;;;1.40;1.13;;;21.50;99.90;;;;;;7390573;19;20154;-78
2022/07/14 03:05:48;;;;;;;3.40;1.48;;;21.40;99.90;;;;;;7390433;19;20143;-78
2022/07/14 03:08:15;;;;;;;3.58;1.13;;;21.40;99.90;;;;;;7393241;19;20138;-78
2022/07/14 03:10:41;;;;;;;3.67;1.65;;;21.50;99.90;;;;;;7392056;19;20538;-78
2022/07/14 03:13:07;;;;;;;4.43;1.75;;;21.50;99.90;;;;;;7395115;19;20175;-77
2022/07/14 03:15:34;;;;;;;3.03;1.95;;;21.60;99.90;;;;;;7392718;19;20701;-77
2022/07/14 03:18:01;;;;;;;2.35;1.50;;;21.40;99.90;;;;;;7391303;19;20226;-78
2022/07/14 03:20:27;;;;;;;2.67;1.48;;;21.30;99.90;;;;;;7390115;19;20652;-78
2022/07/14 03:22:53;;;;;;;5.60;2.55;;;21.20;99.90;;;;;;7391876;19;20154;-77
2022/07/14 03:25:19;;;;;;;2.60;1.40;;;21.10;99.90;;;;;;7393136;19;20147;-77
2022/07/14 03:27:46;;;;;;;1.20;1.10;;;21.00;99.90;;;;;;7392658;19;20622;-78
2022/07/14 03:30:13;;;;;;;1.35;1.20;;;21.00;99.90;;;;;;7394363;19;20637;-77
2022/07/14 03:32:39;;;;;;;2.90;1.23;;;21.10;99.90;;;;;;7387997;19;20161;-78
2022/07/14 03:35:07;;;;;;;1.83;1.25;;;21.10;99.90;;;;;;7391746;19;20226;-78
2022/07/14 03:37:36;;;;;;;2.08;1.42;;;21.10;99.90;;;;;;7390788;19;20515;-78
2022/07/14 03:40:04;;;;;;;2.22;1.45;;;21.10;99.90;;;;;;7391594;19;20138;-78
2022/07/14 03:42:30;;;;;;;1.67;1.27;;;21.30;99.90;;;;;;7393898;19;20134;-78
2022/07/14 03:44:56;;;;;;;2.72;1.55;;;21.00;99.90;;;;;;7391640;19;20142;-78
2022/07/14 03:47:23;;;;;;;3.50;1.60;;;20.80;99.90;;;;;;7391410;19;20238;-78
2022/07/14 03:49:49;;;;;;;1.60;1.17;;;20.80;99.90;;;;;;7391379;19;20149;-78
2022/07/14 03:52:15;;;;;;;3.03;1.30;;;20.70;99.90;;;;;;7393001;19;20169;-78
2022/07/14 03:54:50;;;;;;;1.30;1.10;;;20.90;99.90;;;;;;7384795;19;20206;-77
2022/07/14 03:57:15;;;;;;;4.78;1.15;;;20.80;99.90;;;;;;7392835;19;20157;-79
2022/07/14 03:59:41;;;;;;;1.95;1.38;;;21.00;99.90;;;;;;7390109;19;20494;-80
2022/07/14 04:02:11;;;;;;;2.10;1.40;;;21.40;99.90;;;;;;7392527;19;20135;-79
2022/07/14 04:04:39;;;;;;;3.97;1.90;;;21.60;99.90;;;;;;7389327;19;20150;-80
2022/07/14 04:07:05;;;;;;;1.98;1.50;;;21.70;99.90;;;;;;7391994;19;20169;-79
2022/07/14 04:09:32;;;;;;;2.35;1.63;;;21.80;99.90;;;;;;7392814;19;20645;-80
2022/07/14 04:11:58;;;;;;;2.13;1.58;;;21.80;99.90;;;;;;7392716;19;20556;-80
2022/07/14 04:14:24;;;;;;;2.85;1.63;;;21.70;99.90;;;;;;7390403;19;20154;-81
2022/07/14 04:16:51;;;;;;;3.88;1.60;;;21.50;99.90;;;;;;7390705;19;20213;-80
2022/07/14 04:19:17;;;;;;;2.05;1.60;;;21.80;99.90;;;;;;7391795;19;20512;-80
2022/07/14 04:21:43;;;;;;;2.10;1.30;;;21.90;99.90;;;;;;7387315;19;20421;-80
2022/07/14 04:24:09;;;;;;;2.35;1.60;;;22.00;99.90;;;;;;7390896;19;20157;-80
2022/07/14 04:26:40;;;;;;;2.72;1.50;;;21.90;99.90;;;;;;7384703;19;20174;-80
2022/07/14 04:29:06;;;;;;;4.85;1.83;;;21.90;99.90;;;;;;7388561;19;20138;-80
2022/07/14 04:31:33;;;;;;;3.67;1.45;;;22.00;99.90;;;;;;7388534;19;20197;-80
2022/07/14 04:33:58;;;;;;;2.53;1.52;;;21.90;99.90;;;;;;7388277;19;20184;-80
2022/07/14 04:36:25;;;;;;;2.38;1.35;;;21.80;99.90;;;;;;7389449;19;20168;-79
2022/07/14 04:38:51;;;;;;;2.95;1.80;;;21.60;99.90;;;;;;7388822;19;20198;-80
2022/07/14 04:41:16;;;;;;;4.68;1.45;;;21.60;99.90;;;;;;7390286;19;20636;-80
2022/07/14 04:43:42;;;;;;;2.80;1.30;;;21.60;99.90;;;;;;7389906;19;20878;-80
2022/07/14 04:46:09;;;;;;;3.22;1.50;;;21.70;99.90;;;;;;7390408;19;20154;-79
2022/07/14 04:52:01;;;;;;;3.35;1.60;;;21.60;99.90;;;;;;7391475;19;20460;-80
2022/07/14 04:54:05;;;;;;;2.58;1.30;;;21.80;99.90;;;;;;7390889;19;20473;-80
2022/07/14 04:56:31;;;;;;;3.42;1.48;;;21.90;99.90;;;;;;7389127;19;20134;-82
2022/07/14 04:58:57;;;;;;;2.55;1.40;;;21.90;99.90;;;;;;7390750;19;20451;-80
2022/07/14 05:01:23;;;;;;;4.75;1.55;;;21.80;99.90;;;;;;7390248;19;20154;-80
2022/07/14 05:03:48;;;;;;;3.10;1.40;;;21.10;99.90;;;;;;7390509;19;20297;-80
2022/07/14 05:06:16;;;;;;;3.13;1.90;;;21.20;99.90;;;;;;7386476;19;20169;-81
2022/07/14 05:08:42;;;;;;;2.47;1.48;;;21.40;99.90;;;;;;7388281;19;20997;-80
2022/07/14 05:11:08;;;;;;;5.32;1.50;;;21.40;99.90;;;;;;7390155;19;20177;-80
2022/07/14 05:13:34;;;;;;;2.28;1.45;;;21.50;99.90;;;;;;7390160;19;20484;-81
2022/07/14 05:16:00;;;;;;;3.55;2.13;;;21.50;99.90;;;;;;7389215;19;20150;-79
2022/07/14 05:18:25;;;;;;;4.25;1.58;;;21.50;99.90;;;;;;7393171;19;20154;-79
2022/07/14 05:20:51;;;;;;;3.58;1.40;;;21.60;99.90;;;;;;7387634;19;20568;-78
2022/07/14 05:23:17;;;;;;;2.15;1.30;;;21.40;99.90;;;;;;7389061;19;20142;-80
2022/07/14 05:25:46;;;;;;;1.20;1.05;;;21.30;99.90;;;;;;7387008;19;20193;-85
2022/07/14 05:28:14;;;;;;;1.83;1.33;;;21.30;99.90;;;;;;7387263;19;20488;-81
2022/07/14 05:30:40;;;;;;;2.45;1.33;;;21.30;99.90;;;;;;7386714;19;20525;-79
2022/07/14 05:33:07;;;;;;;2.38;1.40;;;21.40;99.90;;;;;;7387909;19;20146;-79
2022/07/14 05:35:34;;;;;;;3.40;1.38;;;21.70;99.90;;;;;;7388576;19;20150;-80
2022/07/14 05:37:59;;;;;;;2.25;1.48;;;21.60;99.90;;;;;;7384765;19;20181;-80
2022/07/14 05:40:25;;;;;;;4.47;1.83;;;21.80;99.90;;;;;;7386537;19;20523;-79
2022/07/14 05:42:51;;;;;;;2.33;1.52;;;21.70;99.90;;;;;;7388266;19;20138;-80
2022/07/14 05:45:17;;;;;;;2.05;1.35;;;21.50;99.90;;;;;;7388438;19;20143;-80
2022/07/14 05:47:43;;;;;;;5.03;1.83;;;21.70;99.90;;;;;;7388048;19;20142;-79
2022/07/14 05:50:09;;;;;;;2.30;1.38;;;21.50;99.90;;;;;;7388233;19;20688;-79
2022/07/14 05:52:35;;;;;;;2.47;1.38;;;21.70;99.90;;;;;;7389912;19;20171;-81
2022/07/14 05:55:01;;;;;;;1.27;0.98;;;21.70;99.90;;;;;;7389192;19;20134;-79
2022/07/14 05:57:27;;;;;;;2.85;1.50;;;21.90;99.90;;;;;;7389287;19;20135;-80
2022/07/14 05:59:55;;;;;;;3.65;1.45;;;22.20;99.90;;;;;;7388471;19;20153;-80
2022/07/14 06:02:24;;;;;;;3.20;1.45;;;22.40;99.90;;;;;;7384949;19;20177;-80
2022/07/14 06:04:50;;;;;;;2.72;1.38;;;22.40;99.90;;;;;;7384975;19;20565;-79
2022/07/14 06:07:16;;;;;;;3.45;1.33;;;22.50;99.90;;;;;;7385097;19;20151;-79
2022/07/14 06:09:42;;;;;;;1.73;1.30;;;22.60;99.90;;;;;;7386117;19;20139;-78
2022/07/14 06:12:10;;;;;;;1.48;1.00;;;22.70;99.90;;;;;;7389824;19;20142;-81
2022/07/14 06:14:36;;;;;;;2.05;1.23;;;22.80;99.90;;;;;;7386301;19;20166;-78
2022/07/14 06:17:01;;;;;;;2.00;1.42;;;22.90;99.90;;;;;;7384102;19;20246;-78
2022/07/14 06:19:27;;;;;;;2.65;1.40;;;23.00;99.90;;;;;;7388523;19;20203;-80
2022/07/14 06:21:53;;;;;;;2.08;1.13;;;23.20;99.90;;;;;;7382323;19;20151;-78
2022/07/14 06:24:19;;;;;;;2.45;1.40;;;23.50;99.90;;;;;;7386015;19;20153;-78
2022/07/14 06:26:45;;;;;;;3.20;0.90;;;24.00;99.90;;;;;;7382966;19;20174;-79
2022/07/14 06:29:11;;;;;;;2.20;1.27;;;24.60;99.90;;;;;;7390911;19;20134;-79
2022/07/14 06:31:38;;;;;;;3.03;1.30;;;25.20;99.90;;;;;;7390151;19;20175;-78
2022/07/14 06:34:04;;;;;;;2.90;1.20;;;25.40;99.90;;;;;;7391276;19;20604;-79
2022/07/14 06:36:33;;;;;;;4.25;1.17;;;25.20;99.90;;;;;;7397799;19;20139;-78
2022/07/14 06:39:01;;;;;;;2.72;1.10;;;25.30;99.90;;;;;;7393010;19;20138;-79
2022/07/14 06:41:27;;;;;;;1.67;1.10;;;25.50;99.90;;;;;;7392424;19;20646;-81
2022/07/14 06:43:52;;;;;;;1.30;1.10;;;25.50;99.80;;;;;;7393980;19;20173;-79
2022/07/14 06:46:18;;;;;;;2.92;1.30;;;25.90;99.40;;;;;;7392310;19;20496;-80
2022/07/14 06:48:45;;;;;;;2.80;1.20;;;26.50;98.70;;;;;;7390867;19;21035;-81
2022/07/14 06:51:11;;;;;;;4.55;1.42;;;26.80;98.40;;;;;;7395821;19;20149;-79
2022/07/14 06:53:37;;;;;;;2.42;1.30;;;27.00;98.40;;;;;;7392817;19;20138;-82
2022/07/14 06:56:03;;;;;;;1.70;1.30;;;27.10;98.00;;;;;;7394300;19;20499;-83
2022/07/14 06:58:30;;;;;;;2.03;1.38;;;27.10;98.20;;;;;;7394047;19;20162;-86
2022/07/14 07:00:56;;;;;;;3.03;1.40;;;27.20;98.30;;;;;;7389253;19;20138;-79
2022/07/14 07:03:23;;;;;;;3.92;1.20;;;27.20;98.30;;;;;;7393090;19;20557;-78
2022/07/14 07:08:34;;;;;;;4.22;1.70;;;27.60;97.70;;;;;;7401227;19;20135;-78
2022/07/14 07:11:00;;;;;;;3.53;1.58;;;28.10;97.10;;;;;;7394525;19;20185;-78
2022/07/14 07:13:29;;;;;;;2.72;1.67;;;28.10;96.70;;;;;;7393277;19;20183;-79
2022/07/14 07:15:54;;;;;;;2.92;1.73;;;27.90;96.70;;;;;;7393597;19;20179;-79
2022/07/14 07:18:20;;;;;;;1.73;1.13;;;27.90;96.80;;;;;;7389066;19;20158;-80
2022/07/14 07:20:46;;;;;;;3.67;1.67;;;28.10;96.60;;;;;;7392128;19;20147;-79
2022/07/14 07:23:12;;;;;;;2.78;1.80;;;28.10;96.50;;;;;;7392284;19;20131;-78
2022/07/14 07:25:38;;;;;;;5.43;1.60;;;28.00;96.40;;;;;;7392268;19;20166;-78
2022/07/14 07:28:04;;;;;;;6.07;2.38;;;28.30;96.00;;;;;;7391688;19;20532;-79
2022/07/14 07:30:30;;;;;;;3.80;1.63;;;28.40;95.80;;;;;;7393531;19;20492;-79
2022/07/14 07:32:56;;;;;;;3.97;1.70;;;28.30;95.90;;;;;;7388996;19;20167;-78
2022/07/14 07:35:22;;;;;;;3.17;2.10;;;28.10;96.00;;;;;;7387698;19;20190;-79
2022/07/14 07:37:49;;;;;;;4.30;2.20;;;27.90;96.30;;;;;;7390362;19;20157;-79
2022/07/14 07:40:15;;;;;;;4.95;2.00;;;27.70;96.60;;;;;;7387326;19;20171;-79
2022/07/14 07:42:41;;;;;;;5.18;2.30;;;27.70;96.60;;;;;;7392298;19;20161;-78
2022/07/14 07:45:08;;;;;;;2.90;1.83;;;27.70;96.60;;;;;;7390052;19;20150;-77
2022/07/14 07:47:34;;;;;;;2.53;1.77;;;27.80;96.60;;;;;;7387928;19;20135;-78
2022/07/14 07:50:00;;;;;;;4.30;1.92;;;27.80;96.60;;;;;;7390312;19;20150;-80
2022/07/14 07:52:27;;;;;;;5.90;1.73;;;28.20;96.50;;;;;;7393206;19;20269;-82
2022/07/14 07:54:53;;;;;;;3.53;1.92;;;28.60;96.10;;;;;;7396259;19;20127;-76
2022/07/14 07:57:19;;;;;;;5.07;1.65;;;29.20;95.40;;;;;;7389330;19;20475;-77
2022/07/14 07:59:49;;;;;;;2.15;1.63;;;29.60;94.60;;;;;;7389833;19;20703;-79
2022/07/14 08:02:18;;;;;;;4.35;2.25;;;30.00;94.10;;;;;;7389580;19;20138;-76
2022/07/14 08:04:45;;;;;;;5.55;2.13;;;30.00;93.90;;;;;;7393237;19;20612;-77
2022/07/14 08:07:11;;;;;;;5.78;2.10;;;30.00;93.70;;;;;;7407785;19;20131;-78
2022/07/14 08:09:37;;;;;;;5.13;1.70;;;30.00;93.60;;;;;;7402788;19;20177;-78
2022/07/14 08:12:03;;;;;;;5.82;1.70;;;30.20;92.30;;;;;;7391464;19;20129;-79
2022/07/14 08:17:13;;;;;;;5.88;2.15;;;30.70;91.20;;;;;;7390649;19;20462;-79
2022/07/14 08:19:39;;;;;;;5.28;2.03;;;30.80;91.20;;;;;;7386307;19;20146;-78
2022/07/14 08:22:05;;;;;;;3.08;2.08;;;30.60;91.50;;;;;;7388058;19;20531;-77
2022/07/14 08:24:31;;;;;;;5.30;2.08;;;30.40;91.70;;;;;;7392950;19;20134;-78
2022/07/14 08:26:57;;;;;;;5.97;1.98;;;30.30;91.90;;;;;;7388802;19;20157;-75
2022/07/14 08:29:23;;;;;;;4.90;2.15;;;30.40;91.40;;;;;;7395529;19;20162;-78
2022/07/14 08:31:50;;;;;;;4.28;1.95;;;30.50;90.70;;;;;;7388622;19;20142;-79
2022/07/14 08:34:16;;;;;;;7.80;2.15;;;30.80;91.10;;;;;;7388828;19;20138;-78
2022/07/14 08:36:41;;;;;;;6.10;1.98;;;30.90;90.70;;;;;;7388084;19;20146;-78
2022/07/14 08:39:08;;;;;;;6.18;2.10;;;31.10;89.70;;;;;;7387063;19;20151;-77
2022/07/14 08:41:38;;;;;;;4.75;2.17;;;31.00;90.00;;;;;;7393424;19;20160;-76
2022/07/14 08:44:04;;;;;;;4.03;1.58;;;30.90;90.10;;;;;;7393647;19;20138;-78
2022/07/14 08:46:36;;;;;;;2.85;2.00;;;30.70;90.50;;;;;;7387834;19;20142;-78
2022/07/14 08:49:04;;;;;;;3.30;1.65;;;30.70;90.70;;;;;;7386856;19;20158;-77
2022/07/14 08:51:32;;;;;;;5.20;1.70;;;30.80;90.20;;;;;;7387565;19;20147;-78
2022/07/14 08:53:59;;;;;;;5.57;1.70;;;31.10;90.00;;;;;;7386526;19;20210;-76
2022/07/14 08:56:27;;;;;;;3.35;1.40;;;31.30;88.30;;;;;;7390184;19;20482;-78
2022/07/14 08:58:53;;;;;;;4.97;1.73;;;31.40;86.90;;;;;;7385561;19;20645;-77
2022/07/14 09:01:21;;;;;;;2.60;2.03;;;31.40;88.10;;;;;;7386372;19;20218;-78
2022/07/14 09:03:49;;;;;;;4.55;1.55;;;31.50;87.50;;;;;;7388996;19;20143;-77
2022/07/14 09:06:50;;;;;;;5.07;1.40;;;31.70;86.50;;;;;;7386812;19;20175;-78
2022/07/14 09:09:27;;;;;;;2.42;1.40;;;31.90;83.70;;;;;;7388633;19;20149;-78
2022/07/14 09:12:04;;;;;;;1.27;1.17;;;31.90;84.60;;;;;;7388287;19;20206;-77
2022/07/14 09:17:18;;;;;;;2.72;1.55;;;31.80;85.70;;;;;;7388322;19;20604;-77
2022/07/14 09:20:07;;;;;;;8.77;5.75;;;31.90;82.40;;;;;;7383081;19;20250;-78
2022/07/14 09:22:36;;;;;;;1.90;1.50;;;32.30;75.50;;;;;;7387928;19;20674;-78
2022/07/14 09:25:04;;;;;;;1.45;1.00;;;33.00;71.20;;;;;;7383774;19;20180;-77
2022/07/14 09:27:30;;;;;;;1.15;0.98;;;33.30;69.80;;;;;;7388223;19;20155;-79
2022/07/14 09:29:56;;;;;;;1.55;1.20;;;32.90;69.60;;;;;;7385980;19;20144;-77
2022/07/14 09:33:03;;;;;;;3.78;1.20;;;32.60;66.30;;;;;;7386040;19;20239;-78
2022/07/14 09:35:33;;;;;;;1.70;1.15;;;32.50;68.70;;;;;;7380313;19;21094;-78
2022/07/14 09:37:59;;;;;;;3.30;2.28;;;32.40;68.00;;;;;;7384051;19;20142;-77
2022/07/14 09:40:26;;;;;;;2.72;1.20;;;32.40;67.90;;;;;;7383552;19;20174;-79
2022/07/14 09:43:03;;;;;;;1.20;1.10;;;32.40;66.60;;;;;;7386591;19;20134;-78
2022/07/14 09:45:34;;;;;;;1.42;0.80;;;32.00;64.60;;;;;;7387575;19;20669;-77
2022/07/14 09:48:07;;;;;;;2.40;1.00;;;31.90;65.40;;;;;;7387319;19;20525;-77
2022/07/14 09:50:59;;;;;;;2.95;0.98;;;32.20;65.00;;;;;;7386329;19;20275;-78
2022/07/14 09:53:35;;;;;;;3.50;0.80;;;32.40;65.90;;;;;;7386072;19;20158;-78
2022/07/14 09:56:03;;;;;;;1.60;1.23;;;32.50;65.00;;;;;;7387904;19;20395;-80
2022/07/14 09:58:31;;;;;;;1.88;0.90;;;32.60;65.50;;;;;;7391448;19;20158;-79
2022/07/14 10:01:05;;;;;;;2.88;1.05;;;32.70;65.50;;;;;;7383998;19;20487;-78
2022/07/14 10:03:33;;;;;;;2.58;1.17;;;32.70;65.10;;;;;;7393278;19;20174;-78
2022/07/14 10:06:01;;;;;;;17.27;2.65;;;32.70;64.20;;;;;;7399695;19;20147;-77
2022/07/14 10:08:34;;;;;;;5.60;1.52;;;32.60;64.50;;;;;;7406552;19;20143;-79
2022/07/14 10:11:01;;;;;;;2.05;1.02;;;32.50;64.90;;;;;;7399212;19;20160;-79
2022/07/14 10:13:26;;;;;;;2.97;1.50;;;32.40;64.10;;;;;;7395400;19;20151;-79
2022/07/14 10:15:54;;;;;;;5.80;1.30;;;32.50;64.00;;;;;;7394380;19;20152;-77
2022/07/14 10:18:21;;;;;;;3.97;1.20;;;32.50;63.30;;;;;;7393826;19;20620;-78
2022/07/14 10:20:50;;;;;;;3.80;2.60;;;32.50;63.30;;;;;;7393459;19;20202;-78
2022/07/14 10:23:18;;;;;;;2.00;1.20;;;32.50;63.10;;;;;;7392960;19;20158;-78
2022/07/14 10:25:52;;;;;;;1.60;1.50;;;32.70;62.20;;;;;;7393578;19;20676;-79
2022/07/14 10:28:19;;;;;;;1.83;1.30;;;32.80;62.60;;;;;;7391779;19;20222;-79
2022/07/14 10:31:18;;;;;;;2.40;1.42;;;32.90;62.70;;;;;;7403165;19;20521;-79
2022/07/14 10:34:02;;;;;;;3.17;1.40;;;33.00;62.10;;;;;;7393867;19;20146;-79
2022/07/14 10:36:51;;;;;;;3.63;1.20;;;32.90;62.00;;;;;;7395632;19;20274;-79
2022/07/14 10:39:41;;;;;;;4.28;2.28;;;32.80;61.40;;;;;;7385525;19;20171;-78
2022/07/14 10:42:32;;;;;;;3.10;1.80;;;33.00;61.80;;;;;;7392784;19;20134;-78
2022/07/14 10:45:01;;;;;;;2.85;2.42;;;33.30;60.40;;;;;;7392763;19;20718;-78
2022/07/14 10:47:52;;;;;;;1.92;1.10;;;33.50;61.20;;;;;;7393099;19;20138;-79
2022/07/14 10:50:26;;;;;;;2.85;1.50;;;33.50;61.50;;;;;;7390242;19;20158;-78
2022/07/14 10:52:55;;;;;;;4.60;2.13;;;33.40;60.50;;;;;;7392138;19;20138;-79
2022/07/14 10:55:30;;;;;;;1.15;1.00;;;33.40;59.90;;;;;;7395309;19;20131;-79
2022/07/14 10:58:18;;;;;;;1.20;0.98;;;33.40;59.80;;;;;;7394809;19;20632;-78
2022/07/14 11:00:46;;;;;;;3.72;1.92;;;33.40;59.60;;;;;;7391579;19;20521;-78
2022/07/14 11:03:43;;;;;;;1.58;1.27;;;33.40;58.80;;;;;;7390590;19;20529;-80
2022/07/14 11:06:09;;;;;;;1.50;1.10;;;33.30;58.60;;;;;;7394063;19;20146;-79
2022/07/14 11:08:40;;;;;;;3.80;0.90;;;33.00;59.00;;;;;;7390781;19;20250;-78
2022/07/14 11:11:16;;;;;;;4.63;2.10;;;32.80;59.30;;;;;;7390876;19;20134;-79
2022/07/14 11:14:00;;;;;;;1.08;0.90;;;33.00;58.90;;;;;;7392449;19;20542;-77
2022/07/14 11:16:55;;;;;;;2.20;1.90;;;32.90;58.80;;;;;;7399037;19;20150;-78
2022/07/14 11:19:27;;;;;;;1.83;1.05;;;33.00;58.00;;;;;;7389691;19;20900;-77
2022/07/14 11:22:12;;;;;;;3.10;1.17;;;33.10;58.00;;;;;;7394378;19;20126;-76
2022/07/14 11:24:55;;;;;;;2.78;2.40;;;32.90;58.50;;;;;;7392664;19;20595;-78
2022/07/14 11:27:35;;;;;;;4.03;1.50;;;33.20;58.20;;;;;;7388998;19;20498;-77
2022/07/14 11:30:26;;;;;;;2.38;1.10;;;33.20;58.60;;;;;;7393290;19;20147;-78
2022/07/14 11:33:11;;;;;;;1.98;1.10;;;33.10;58.00;;;;;;7392772;19;20768;-77
2022/07/14 11:36:20;;;;;;;1.95;0.90;;;32.90;58.30;;;;;;7390842;19;20793;-77
2022/07/14 11:38:46;;;;;;;2.22;1.02;;;32.90;58.90;;;;;;7393309;19;20134;-77
2022/07/14 11:41:13;;;;;;;0.90;0.88;;;32.70;59.30;;;;;;7390148;19;20142;-78
2022/07/14 11:43:44;;;;;;;0.80;0.80;;;32.70;59.80;;;;;;7391137;19;20165;-77
2022/07/14 11:46:12;;;;;;;1.20;1.10;;;32.50;59.10;;;;;;7391387;19;20226;-78
2022/07/14 11:48:44;;;;;;;1.40;0.90;;;32.50;59.00;;;;;;7388386;19;20143;-78
2022/07/14 11:51:16;;;;;;;2.15;1.52;;;32.50;58.80;;;;;;7393378;19;20138;-78
2022/07/14 11:53:42;;;;;;;2.70;1.30;;;32.50;59.40;;;;;;7390783;19;20131;-77
2022/07/14 11:56:10;;;;;;;7.90;3.72;;;32.70;59.20;;;;;;7392416;19;20138;-78
2022/07/14 11:58:39;;;;;;;1.35;1.20;;;32.70;59.70;;;;;;7390366;19;20138;-79
2022/07/14 12:01:07;;;;;;;2.05;1.20;;;32.80;59.50;;;;;;7391021;19;20623;-77
2022/07/14 12:03:33;;;;;;;2.80;0.75;;;32.70;60.60;;;;;;7387533;19;20587;-79
2022/07/14 12:06:01;;;;;;;1.67;1.23;;;32.80;59.90;;;;;;7391109;19;20823;-79
2022/07/14 12:08:33;;;;;;;2.03;1.30;;;32.80;60.60;;;;;;7386392;19;20767;-78
2022/07/14 12:11:13;;;;;;;1.45;1.08;;;32.80;60.80;;;;;;7390213;19;20131;-79
2022/07/14 12:13:51;;;;;;;3.35;1.10;;;32.80;60.90;;;;;;7393379;19;20194;-80
2022/07/14 12:16:18;;;;;;;5.32;1.15;;;32.90;60.90;;;;;;7387012;19;20142;-79
2022/07/14 12:18:44;;;;;;;4.13;1.20;;;32.90;60.70;;;;;;7389448;19;20190;-79
2022/07/14 12:21:11;;;;;;;1.73;1.27;;;32.80;60.50;;;;;;7387986;19;20150;-78
2022/07/14 12:23:56;;;;;;;1.85;1.20;;;32.70;61.10;;;;;;7389740;19;20141;-79
2022/07/14 12:26:24;;;;;;;2.83;1.20;;;32.70;60.40;;;;;;7387408;19;20479;-78
2022/07/14 12:28:55;;;;;;;1.30;1.20;;;32.90;59.40;;;;;;7389850;19;20139;-79
2022/07/14 12:31:22;;;;;;;1.85;1.17;;;32.90;59.70;;;;;;7392299;19;20130;-78
2022/07/14 12:33:51;;;;;;;0.80;0.80;;;33.00;59.20;;;;;;7388730;19;20134;-77
2022/07/14 12:36:23;;;;;;;1.50;1.00;;;33.10;59.20;;;;;;7386792;19;20142;-79
2022/07/14 12:38:49;;;;;;;3.10;1.25;;;33.20;59.00;;;;;;7384731;19;20130;-78
2022/07/14 12:41:19;;;;;;;3.28;1.10;;;33.20;58.40;;;;;;7388267;19;20146;-78
2022/07/14 12:43:46;;;;;;;1.70;1.10;;;33.40;58.00;;;;;;7389054;19;20142;-79
2022/07/14 12:46:18;;;;;;;4.75;1.50;;;33.50;58.10;;;;;;7390135;19;20166;-80
2022/07/14 12:48:49;;;;;;;4.13;1.20;;;33.60;58.00;;;;;;7389525;19;20198;-77
2022/07/14 12:51:43;;;;;;;1.35;0.93;;;33.50;57.40;;;;;;7388018;19;20655;-79
2022/07/14 12:54:18;;;;;;;0.88;0.88;;;33.40;56.60;;;;;;7389716;19;20600;-80
2022/07/14 12:56:43;;;;;;;3.70;1.30;;;33.30;57.10;;;;;;7388734;19;20138;-78
2022/07/14 12:59:18;;;;;;;4.97;1.10;;;33.20;57.20;;;;;;7387697;19;20585;-79
2022/07/14 13:01:53;;;;;;;2.10;0.95;;;33.10;57.30;;;;;;7386608;19;20177;-78
2022/07/14 13:04:41;;;;;;;0.93;0.90;;;33.10;57.50;;;;;;7390558;19;20127;-79
2022/07/14 13:07:20;;;;;;;1.25;1.00;;;33.10;57.30;;;;;;7389093;19;20149;-81
2022/07/14 13:10:18;;;;;;;1.17;1.05;;;33.00;58.20;;;;;;7387699;19;20146;-78
2022/07/14 13:12:45;;;;;;;1.58;0.90;;;33.00;57.60;;;;;;7387870;19;20135;-80